Time;durP1;ratioP1;P1;durP2;ratioP2;P2;SDS_P1;SDS_P2;PMS_P1;PMS_P2;Temp;Humidity;BMP_temperature;BMP_pressure;BME280_temperature;BME280_humidity;BME280_pressure;Samples;Min_cycle;Max_cycle;Signal;HPM_P1;HPM_P2
2022/01/07 00:01:01;;;;;;;26.02;8.30;;;3.70;99.90;;;;;;5042391;28;20408;-39
2022/01/07 00:03:28;;;;;;;19.75;7.25;;;3.70;99.90;;;;;;5046539;28;20404;-40
2022/01/07 00:05:55;;;;;;;22.90;7.20;;;3.70;99.90;;;;;;5043332;28;20045;-39
2022/01/07 00:08:22;;;;;;;19.63;7.55;;;3.60;99.90;;;;;;5030357;28;20112;-39
2022/01/07 00:10:49;;;;;;;24.08;7.18;;;3.60;99.90;;;;;;5035348;28;20056;-39
2022/01/07 00:13:16;;;;;;;16.90;6.97;;;3.60;99.90;;;;;;5049400;28;20064;-39
2022/01/07 00:15:44;;;;;;;17.50;7.45;;;3.60;99.90;;;;;;5032991;28;20049;-39
2022/01/07 00:18:12;;;;;;;16.98;6.15;;;3.60;99.90;;;;;;5034218;28;20056;-39
2022/01/07 00:20:39;;;;;;;20.02;6.80;;;3.60;99.90;;;;;;5048875;28;20107;-40
2022/01/07 00:23:06;;;;;;;22.65;7.00;;;3.60;99.90;;;;;;5050290;28;20396;-39
2022/01/07 00:25:33;;;;;;;24.05;7.60;;;3.60;99.90;;;;;;5045911;28;20055;-40
2022/01/07 00:28:00;;;;;;;19.63;6.65;;;3.60;99.90;;;;;;5059480;28;20418;-39
2022/01/07 00:30:27;;;;;;;19.13;6.40;;;3.60;99.90;;;;;;5062324;28;20044;-39
2022/01/07 00:32:54;;;;;;;17.98;7.22;;;3.70;99.90;;;;;;5038534;28;20071;-39
2022/01/07 00:35:23;;;;;;;26.10;8.10;;;3.60;99.90;;;;;;5051409;28;20049;-39
2022/01/07 00:37:50;;;;;;;19.98;6.57;;;3.70;99.90;;;;;;5054434;28;20107;-39
2022/01/07 00:40:18;;;;;;;19.73;6.63;;;3.60;99.90;;;;;;5035295;28;20106;-39
2022/01/07 00:42:48;;;;;;;17.65;6.95;;;3.60;99.90;;;;;;5050906;28;20084;-38
2022/01/07 00:45:15;;;;;;;15.27;6.32;;;3.60;99.90;;;;;;5043768;28;20044;-39
2022/01/07 00:47:42;;;;;;;16.25;6.35;;;3.60;99.90;;;;;;5056847;28;20049;-39
2022/01/07 00:50:09;;;;;;;23.52;7.45;;;3.60;99.90;;;;;;5037280;28;20094;-38
2022/01/07 00:52:38;;;;;;;20.17;6.70;;;3.50;99.90;;;;;;5035370;28;20044;-38
2022/01/07 00:55:05;;;;;;;25.08;7.20;;;3.50;99.90;;;;;;5052764;28;20052;-38
2022/01/07 00:57:33;;;;;;;18.13;6.65;;;3.40;99.90;;;;;;5052050;28;20057;-38
2022/01/07 01:00:00;;;;;;;23.15;6.90;;;3.40;99.90;;;;;;5048392;28;20068;-38
2022/01/07 01:02:27;;;;;;;21.15;6.88;;;3.40;99.90;;;;;;5035235;28;20080;-38
2022/01/07 01:04:54;;;;;;;19.48;6.88;;;3.40;99.90;;;;;;5030686;28;20057;-38
2022/01/07 01:07:21;;;;;;;22.85;7.13;;;3.30;99.90;;;;;;5034844;28;20137;-38
2022/01/07 01:09:49;;;;;;;20.02;5.97;;;3.30;99.90;;;;;;5048453;28;20500;-38
2022/01/07 01:12:16;;;;;;;24.10;7.18;;;3.30;99.90;;;;;;5054091;28;20086;-38
2022/01/07 01:14:43;;;;;;;20.27;6.68;;;3.20;99.90;;;;;;5051586;28;20088;-38
2022/01/07 01:17:10;;;;;;;20.45;7.22;;;3.20;99.90;;;;;;5030917;28;20049;-38
2022/01/07 01:19:38;;;;;;;18.50;6.57;;;3.20;99.90;;;;;;5027975;28;20071;-38
2022/01/07 01:22:05;;;;;;;19.90;6.60;;;3.20;99.90;;;;;;5028852;28;20128;-38
2022/01/07 01:24:32;;;;;;;26.73;7.32;;;3.20;99.90;;;;;;5035226;28;20041;-38
2022/01/07 01:27:00;;;;;;;17.88;6.60;;;3.10;99.90;;;;;;5021227;28;20052;-38
2022/01/07 01:29:28;;;;;;;25.15;7.10;;;3.10;99.90;;;;;;5043682;28;20045;-38
2022/01/07 01:31:55;;;;;;;15.13;6.50;;;3.10;99.90;;;;;;5035378;28;20543;-38
2022/01/07 01:34:22;;;;;;;22.70;8.07;;;3.10;99.90;;;;;;5024647;28;20532;-38
2022/01/07 01:36:49;;;;;;;24.80;7.72;;;3.10;99.90;;;;;;5030577;28;20053;-38
2022/01/07 01:39:16;;;;;;;17.75;6.35;;;3.00;99.90;;;;;;5029963;28;20528;-38
2022/01/07 01:41:43;;;;;;;20.70;7.38;;;3.00;99.90;;;;;;5030553;28;20501;-38
2022/01/07 01:44:12;;;;;;;20.38;8.05;;;3.00;99.90;;;;;;5036607;28;20085;-38
2022/01/07 01:46:39;;;;;;;18.95;7.90;;;3.00;99.90;;;;;;5019568;28;20509;-38
2022/01/07 01:49:06;;;;;;;22.52;8.55;;;2.90;99.90;;;;;;5048307;28;20055;-38
2022/01/07 01:51:34;;;;;;;14.52;8.00;;;2.90;99.90;;;;;;5025603;28;20548;-38
2022/01/07 01:54:01;;;;;;;24.85;8.35;;;2.90;99.90;;;;;;5040025;28;20413;-38
2022/01/07 01:56:28;;;;;;;16.55;6.95;;;2.90;99.90;;;;;;5039850;28;20053;-38
2022/01/07 01:58:55;;;;;;;25.63;9.18;;;2.90;99.90;;;;;;5035197;28;20047;-38
2022/01/07 02:01:23;;;;;;;26.98;9.70;;;2.90;99.90;;;;;;5038074;28;20041;-38
2022/01/07 02:03:50;;;;;;;21.00;7.80;;;2.80;99.90;;;;;;5018176;28;20120;-38
2022/01/07 02:06:17;;;;;;;28.20;9.23;;;2.80;99.90;;;;;;5036085;28;20063;-38
2022/01/07 02:08:44;;;;;;;31.02;9.38;;;2.80;99.90;;;;;;5033713;28;20049;-38
2022/01/07 02:11:11;;;;;;;23.25;9.10;;;2.80;99.90;;;;;;5018370;28;20080;-38
2022/01/07 02:13:38;;;;;;;19.75;8.88;;;2.80;99.90;;;;;;5023195;28;20063;-38
2022/01/07 02:16:05;;;;;;;23.55;10.32;;;2.80;99.90;;;;;;5019975;28;20046;-38
2022/01/07 02:18:34;;;;;;;22.80;9.43;;;2.80;99.90;;;;;;5027167;28;20572;-38
2022/01/07 02:21:03;;;;;;;26.13;9.65;;;2.80;99.90;;;;;;5047245;28;20067;-38
2022/01/07 02:23:32;;;;;;;20.40;8.75;;;2.80;99.90;;;;;;5043461;28;20073;-38
2022/01/07 02:25:59;;;;;;;29.73;11.23;;;2.80;99.90;;;;;;5044690;28;20385;-38
2022/01/07 02:28:26;;;;;;;26.90;10.85;;;2.80;99.90;;;;;;5016012;28;20144;-38
2022/01/07 02:30:53;;;;;;;27.13;10.52;;;2.80;99.90;;;;;;5015930;28;20089;-38
2022/01/07 02:33:20;;;;;;;28.30;10.57;;;2.80;99.90;;;;;;5024678;28;20049;-38
2022/01/07 02:35:47;;;;;;;27.05;10.10;;;2.80;99.90;;;;;;5033608;28;20099;-38
2022/01/07 02:38:16;;;;;;;24.38;10.93;;;2.80;99.90;;;;;;5018732;28;20055;-38
2022/01/07 02:40:43;;;;;;;21.27;10.55;;;2.80;99.90;;;;;;5039496;28;20041;-38
2022/01/07 02:43:10;;;;;;;23.67;10.50;;;2.80;99.90;;;;;;5018701;28;20056;-38
2022/01/07 02:45:37;;;;;;;24.50;10.73;;;2.80;99.90;;;;;;5042360;28;20053;-38
2022/01/07 02:48:04;;;;;;;21.85;10.68;;;2.70;99.90;;;;;;5030965;28;20157;-38
2022/01/07 02:50:33;;;;;;;20.65;11.02;;;2.70;99.90;;;;;;5040196;28;20085;-38
2022/01/07 02:53:00;;;;;;;18.90;12.02;;;2.70;99.90;;;;;;5022561;28;20129;-38
2022/01/07 02:55:29;;;;;;;25.00;12.10;;;2.70;99.90;;;;;;5028375;28;20075;-38
2022/01/07 02:57:56;;;;;;;25.02;11.80;;;2.70;99.90;;;;;;5015635;28;20049;-38
2022/01/07 03:00:23;;;;;;;20.83;11.80;;;2.70;99.90;;;;;;5040655;28;20449;-38
2022/01/07 03:02:51;;;;;;;23.30;11.48;;;2.70;99.90;;;;;;5036286;28;20045;-39
2022/01/07 03:05:18;;;;;;;25.80;11.68;;;2.70;99.90;;;;;;5034002;28;20110;-38
2022/01/07 03:07:47;;;;;;;25.85;12.30;;;2.80;99.90;;;;;;5015264;28;20459;-38
2022/01/07 03:10:14;;;;;;;21.65;12.18;;;2.80;99.90;;;;;;5015770;28;20058;-38
2022/01/07 03:12:43;;;;;;;17.17;9.50;;;2.80;99.90;;;;;;5018126;28;20045;-38
2022/01/07 03:15:11;;;;;;;32.28;12.25;;;2.80;99.90;;;;;;5023907;28;20057;-38
2022/01/07 03:17:40;;;;;;;23.45;11.68;;;2.80;99.90;;;;;;5021387;28;20412;-38
2022/01/07 03:20:07;;;;;;;22.42;11.85;;;2.80;99.90;;;;;;5020518;28;20054;-38
2022/01/07 03:22:34;;;;;;;20.85;11.48;;;2.80;99.90;;;;;;5019027;28;20096;-39
2022/01/07 03:25:01;;;;;;;25.20;11.65;;;2.80;99.90;;;;;;5020846;28;20046;-38
2022/01/07 03:27:28;;;;;;;22.05;11.38;;;2.80;99.90;;;;;;5014387;28;20084;-38
2022/01/07 03:29:57;;;;;;;21.75;11.98;;;2.80;99.90;;;;;;5028964;28;20552;-38
2022/01/07 03:32:24;;;;;;;23.60;13.07;;;2.80;99.90;;;;;;5012417;28;20133;-39
2022/01/07 03:34:51;;;;;;;22.08;11.90;;;2.80;99.90;;;;;;5016429;28;20132;-39
2022/01/07 03:37:18;;;;;;;21.00;11.32;;;2.80;99.90;;;;;;5012723;28;20089;-39
2022/01/07 03:39:45;;;;;;;21.88;11.70;;;2.80;99.90;;;;;;5012491;28;20052;-39
2022/01/07 03:42:12;;;;;;;23.52;12.20;;;2.80;99.90;;;;;;5016924;28;20122;-39
2022/01/07 03:44:39;;;;;;;21.58;12.35;;;2.90;99.90;;;;;;5019553;28;20053;-39
2022/01/07 03:47:08;;;;;;;22.42;11.45;;;2.90;99.90;;;;;;5015628;28;20049;-39
2022/01/07 03:49:35;;;;;;;20.67;11.80;;;2.90;99.90;;;;;;5033172;28;20498;-39
2022/01/07 03:52:02;;;;;;;26.17;11.35;;;2.90;99.90;;;;;;5030514;28;20050;-39
2022/01/07 03:54:29;;;;;;;23.55;11.48;;;2.90;99.90;;;;;;5033543;28;20048;-39
2022/01/07 03:56:56;;;;;;;18.55;10.40;;;2.90;99.90;;;;;;5022350;28;20046;-39
2022/01/07 03:59:23;;;;;;;21.83;12.13;;;2.90;99.90;;;;;;5021676;28;20123;-38
2022/01/07 04:01:50;;;;;;;28.20;11.23;;;3.00;99.90;;;;;;5024701;28;20129;-39
2022/01/07 04:04:18;;;;;;;19.85;11.60;;;3.00;99.90;;;;;;5022233;28;20474;-39
2022/01/07 04:06:45;;;;;;;21.90;11.40;;;3.00;99.90;;;;;;5027790;28;20056;-38
2022/01/07 04:09:12;;;;;;;19.08;9.93;;;3.00;99.90;;;;;;5035599;28;20128;-38
2022/01/07 04:11:39;;;;;;;21.20;11.50;;;3.00;99.90;;;;;;5045390;28;20056;-38
2022/01/07 04:14:06;;;;;;;22.88;11.13;;;3.00;99.90;;;;;;5033177;28;20057;-38
2022/01/07 04:16:33;;;;;;;20.35;9.73;;;3.00;99.90;;;;;;5035555;28;20042;-38
2022/01/07 04:19:00;;;;;;;20.85;11.95;;;3.00;99.90;;;;;;5036472;28;20069;-38
2022/01/07 04:21:29;;;;;;;22.00;10.20;;;3.00;99.90;;;;;;5032591;28;20085;-38
2022/01/07 04:23:56;;;;;;;17.50;10.80;;;3.00;99.90;;;;;;5042159;28;20049;-38
2022/01/07 04:26:23;;;;;;;22.73;11.27;;;3.00;99.90;;;;;;5025518;28;20535;-39
2022/01/07 04:28:53;;;;;;;27.70;11.88;;;3.00;99.90;;;;;;5032357;28;20053;-39
2022/01/07 04:31:20;;;;;;;19.70;10.80;;;3.00;99.90;;;;;;5031876;28;20085;-39
2022/01/07 04:33:47;;;;;;;18.88;10.82;;;3.00;99.90;;;;;;5024770;28;20049;-39
2022/01/07 04:36:14;;;;;;;18.55;8.90;;;3.00;99.90;;;;;;5017704;28;20382;-39
2022/01/07 04:38:42;;;;;;;18.58;10.10;;;3.00;99.90;;;;;;5041841;28;20052;-39
2022/01/07 04:41:09;;;;;;;15.93;9.35;;;3.00;99.90;;;;;;5041972;28;21606;-39
2022/01/07 04:43:36;;;;;;;21.25;10.75;;;3.00;99.90;;;;;;5045553;28;20040;-40
2022/01/07 04:46:04;;;;;;;19.15;10.98;;;3.00;99.90;;;;;;5041557;28;20443;-39
2022/01/07 04:48:31;;;;;;;22.58;10.75;;;3.00;99.90;;;;;;5027752;28;20041;-39
2022/01/07 04:50:58;;;;;;;19.20;10.40;;;3.00;99.90;;;;;;5029909;28;20130;-39
2022/01/07 04:53:26;;;;;;;16.10;9.73;;;3.00;99.90;;;;;;5017917;28;20493;-39
2022/01/07 04:55:56;;;;;;;14.77;9.20;;;3.10;99.90;;;;;;5034836;28;20423;-38
2022/01/07 04:58:23;;;;;;;14.95;8.50;;;3.10;99.90;;;;;;5023481;28;20396;-39
2022/01/07 05:00:50;;;;;;;17.88;10.35;;;3.10;99.90;;;;;;5037937;28;20092;-39
2022/01/07 05:03:17;;;;;;;23.70;10.75;;;3.10;99.90;;;;;;5035114;28;20055;-39
2022/01/07 05:05:49;;;;;;;14.70;9.45;;;3.10;99.90;;;;;;5046416;28;20053;-39
2022/01/07 05:08:18;;;;;;;15.55;9.20;;;3.10;99.90;;;;;;5036714;28;20057;-39
2022/01/07 05:10:45;;;;;;;13.13;7.68;;;3.00;99.90;;;;;;5017702;28;20084;-39
2022/01/07 05:13:14;;;;;;;16.63;10.02;;;3.10;99.90;;;;;;5022405;28;21643;-39
2022/01/07 05:15:41;;;;;;;12.93;8.82;;;3.00;99.90;;;;;;5043144;28;20481;-39
2022/01/07 05:18:08;;;;;;;18.38;9.18;;;3.00;99.90;;;;;;5037041;28;20055;-39
2022/01/07 05:20:35;;;;;;;15.95;8.65;;;3.00;99.90;;;;;;5030097;28;20468;-39
2022/01/07 05:23:02;;;;;;;12.50;8.32;;;3.00;99.90;;;;;;5039137;28;20049;-40
2022/01/07 05:25:34;;;;;;;13.15;8.60;;;3.00;99.90;;;;;;5021407;28;20100;-39
2022/01/07 05:28:01;;;;;;;14.77;8.07;;;3.00;99.90;;;;;;5039188;28;20045;-40
2022/01/07 05:30:29;;;;;;;13.00;8.77;;;3.00;99.90;;;;;;5039704;28;20041;-40
2022/01/07 05:32:56;;;;;;;15.88;9.60;;;3.10;99.90;;;;;;5033771;28;20492;-40
2022/01/07 05:35:25;;;;;;;17.15;8.68;;;3.10;99.90;;;;;;5033307;28;20045;-39
2022/01/07 05:37:53;;;;;;;16.45;8.57;;;3.00;99.90;;;;;;5035856;28;20053;-40
2022/01/07 05:40:20;;;;;;;14.13;8.35;;;3.00;99.90;;;;;;5049366;28;20488;-40
2022/01/07 05:42:47;;;;;;;15.90;8.98;;;3.00;99.90;;;;;;5024766;28;20455;-40
2022/01/07 05:45:14;;;;;;;13.55;9.07;;;3.00;99.90;;;;;;5033762;28;20142;-40
2022/01/07 05:47:42;;;;;;;16.15;8.35;;;3.00;99.90;;;;;;5037480;28;20390;-40
2022/01/07 05:50:10;;;;;;;16.52;8.30;;;3.10;99.90;;;;;;5042506;28;20045;-40
2022/01/07 05:52:37;;;;;;;17.40;9.65;;;3.10;99.90;;;;;;5024044;28;20448;-40
2022/01/07 05:55:04;;;;;;;14.50;8.98;;;3.00;99.90;;;;;;5044142;28;20049;-40
2022/01/07 05:57:31;;;;;;;14.40;8.65;;;3.10;99.90;;;;;;5043854;28;20111;-40
2022/01/07 05:59:58;;;;;;;16.15;9.40;;;3.10;99.90;;;;;;5042127;28;20053;-40
2022/01/07 06:02:25;;;;;;;13.38;9.05;;;3.10;99.90;;;;;;5041876;28;20080;-40
2022/01/07 06:04:54;;;;;;;12.10;8.07;;;3.10;99.90;;;;;;5036608;28;20059;-40
2022/01/07 06:07:21;;;;;;;16.08;8.73;;;3.10;99.90;;;;;;5024465;28;20132;-40
2022/01/07 06:09:48;;;;;;;14.57;7.95;;;3.10;99.90;;;;;;5023857;28;20568;-40
2022/01/07 06:12:15;;;;;;;13.13;8.02;;;3.10;99.90;;;;;;5018369;28;20060;-39
2022/01/07 06:14:42;;;;;;;15.18;8.35;;;3.10;99.90;;;;;;5023885;28;20527;-39
2022/01/07 06:17:10;;;;;;;19.70;9.10;;;3.10;99.90;;;;;;5017411;28;20053;-39
2022/01/07 06:19:37;;;;;;;14.15;7.53;;;3.10;99.90;;;;;;5019537;28;20128;-39
2022/01/07 06:22:05;;;;;;;13.73;8.05;;;3.20;99.90;;;;;;5044372;28;20048;-39
2022/01/07 06:24:32;;;;;;;13.95;8.27;;;3.20;99.90;;;;;;5019853;28;20053;-39
2022/01/07 06:26:59;;;;;;;13.65;8.88;;;3.20;99.90;;;;;;5046073;28;20049;-39
2022/01/07 06:29:26;;;;;;;12.90;8.95;;;3.20;99.90;;;;;;5036801;28;20068;-40
2022/01/07 06:31:53;;;;;;;12.75;8.75;;;3.20;99.90;;;;;;5038016;28;20128;-39
2022/01/07 06:34:23;;;;;;;16.50;9.25;;;3.30;99.90;;;;;;5031746;28;20056;-40
2022/01/07 06:36:50;;;;;;;13.90;8.90;;;3.20;99.90;;;;;;5034216;28;20067;-39
2022/01/07 06:39:20;;;;;;;12.27;8.50;;;3.30;99.90;;;;;;5041564;28;20405;-40
2022/01/07 06:41:47;;;;;;;12.48;8.00;;;3.20;99.90;;;;;;5032993;28;20443;-39
2022/01/07 06:44:14;;;;;;;16.65;9.13;;;3.30;99.90;;;;;;5027842;28;20436;-39
2022/01/07 06:46:41;;;;;;;17.45;9.02;;;3.30;99.90;;;;;;5041670;28;20080;-39
2022/01/07 06:49:08;;;;;;;11.05;8.27;;;3.30;99.90;;;;;;5045520;28;20481;-40
2022/01/07 06:51:35;;;;;;;13.45;9.02;;;3.30;99.90;;;;;;5016503;28;20136;-39
2022/01/07 06:54:02;;;;;;;13.98;8.90;;;3.30;99.90;;;;;;5025672;28;20135;-40
2022/01/07 06:56:30;;;;;;;10.90;7.32;;;3.30;99.90;;;;;;5032653;28;20084;-39
2022/01/07 06:58:57;;;;;;;13.77;9.23;;;3.40;99.90;;;;;;5026556;28;20481;-38
2022/01/07 07:01:24;;;;;;;11.85;9.00;;;3.40;99.90;;;;;;5036849;28;20046;-39
2022/01/07 07:03:51;;;;;;;13.80;8.70;;;3.40;99.90;;;;;;5045110;28;20507;-39
2022/01/07 07:06:18;;;;;;;12.82;9.38;;;3.40;99.90;;;;;;5034545;28;20049;-39
2022/01/07 07:08:46;;;;;;;13.77;9.80;;;3.30;99.90;;;;;;5039243;28;20423;-39
2022/01/07 07:11:13;;;;;;;15.77;10.27;;;3.40;99.90;;;;;;5034058;28;20049;-38
2022/01/07 07:13:41;;;;;;;15.57;9.70;;;3.40;99.90;;;;;;5047405;28;20059;-39
2022/01/07 07:16:08;;;;;;;15.88;10.35;;;3.40;99.90;;;;;;5042428;28;20071;-39
2022/01/07 07:18:35;;;;;;;19.92;11.35;;;3.40;99.90;;;;;;5026008;28;20059;-39
2022/01/07 07:21:02;;;;;;;19.38;11.43;;;3.40;99.90;;;;;;5030565;28;20090;-39
2022/01/07 07:23:29;;;;;;;15.35;10.00;;;3.40;99.90;;;;;;5049353;28;20049;-39
2022/01/07 07:25:56;;;;;;;14.23;10.88;;;3.40;99.90;;;;;;5030972;28;20045;-39
2022/01/07 07:28:23;;;;;;;20.70;12.38;;;3.40;99.90;;;;;;5036702;28;20069;-39
2022/01/07 07:30:54;;;;;;;20.20;11.20;;;3.40;99.90;;;;;;5019354;28;20053;-39
2022/01/07 07:33:53;;;;;;;18.20;12.50;;;3.40;99.90;;;;;;5022833;28;20134;-39
2022/01/07 07:36:30;;;;;;;17.92;11.35;;;3.40;99.90;;;;;;5050131;28;20059;-40
2022/01/07 07:38:58;;;;;;;20.58;13.75;;;3.50;99.90;;;;;;5044857;28;20508;-39
2022/01/07 07:41:25;;;;;;;20.38;13.57;;;3.50;99.90;;;;;;5043219;28;20515;-40
2022/01/07 07:43:52;;;;;;;22.65;13.73;;;3.50;99.90;;;;;;5025739;28;20088;-39
2022/01/07 07:46:21;;;;;;;24.05;14.77;;;3.60;99.90;;;;;;5022173;28;20133;-39
2022/01/07 07:48:48;;;;;;;25.88;15.27;;;3.60;99.90;;;;;;5026644;28;20041;-39
2022/01/07 07:51:15;;;;;;;25.85;15.30;;;3.60;99.90;;;;;;5026057;28;20057;-40
2022/01/07 07:53:42;;;;;;;22.58;15.43;;;3.60;99.90;;;;;;5033204;28;20060;-40
2022/01/07 07:56:09;;;;;;;23.73;14.75;;;3.60;99.90;;;;;;5033362;28;20148;-39
2022/01/07 07:58:36;;;;;;;33.97;17.10;;;3.70;99.90;;;;;;5026548;28;20118;-40
2022/01/07 08:01:03;;;;;;;26.92;18.05;;;3.70;99.90;;;;;;5039409;28;20045;-40
2022/01/07 08:03:32;;;;;;;24.55;15.88;;;3.70;99.90;;;;;;5038421;28;20053;-39
2022/01/07 08:05:59;;;;;;;27.50;17.10;;;3.80;99.90;;;;;;5027988;28;20053;-40
2022/01/07 08:08:26;;;;;;;28.40;17.55;;;3.80;99.90;;;;;;5045159;28;20067;-39
2022/01/07 08:10:56;;;;;;;26.73;15.93;;;3.80;99.90;;;;;;5026827;28;20136;-40
2022/01/07 08:13:28;;;;;;;31.02;17.58;;;3.80;99.90;;;;;;5033830;28;20148;-41
2022/01/07 08:15:58;;;;;;;25.63;16.45;;;3.90;99.90;;;;;;5028742;28;20044;-40
2022/01/07 08:18:25;;;;;;;34.20;18.05;;;3.90;99.90;;;;;;5041946;28;20052;-40
2022/01/07 08:20:53;;;;;;;32.88;18.33;;;3.90;99.90;;;;;;5037599;28;20050;-40
2022/01/07 08:23:20;;;;;;;29.52;19.85;;;3.90;99.90;;;;;;5048853;28;20053;-40
2022/01/07 08:25:47;;;;;;;31.05;20.52;;;4.00;99.90;;;;;;5024031;28;20048;-40
2022/01/07 08:28:15;;;;;;;33.05;20.80;;;4.00;99.90;;;;;;5024529;28;20053;-40
2022/01/07 08:36:09;;;;;;;27.15;18.55;;;4.10;99.90;;;;;;5043206;28;20405;-40
2022/01/07 08:38:36;;;;;;;29.65;19.80;;;4.10;99.90;;;;;;5031742;28;20127;-40
2022/01/07 08:41:03;;;;;;;32.25;20.58;;;4.10;99.90;;;;;;5035849;28;20050;-40
2022/01/07 08:43:30;;;;;;;41.08;21.58;;;4.20;99.90;;;;;;5046925;28;20400;-40
2022/01/07 08:45:57;;;;;;;37.03;19.70;;;4.20;99.90;;;;;;5040210;28;20076;-40
2022/01/07 08:48:24;;;;;;;37.10;21.67;;;4.20;99.90;;;;;;5046089;28;20072;-40
2022/01/07 08:50:51;;;;;;;31.83;20.52;;;4.30;99.90;;;;;;5032122;28;20092;-40
2022/01/07 08:53:20;;;;;;;39.28;21.63;;;4.30;99.90;;;;;;5032949;28;20073;-40
2022/01/07 08:55:47;;;;;;;35.97;21.17;;;4.40;99.90;;;;;;5057636;28;20511;-41
2022/01/07 08:58:14;;;;;;;41.40;21.65;;;4.40;99.90;;;;;;5037348;28;20431;-40
2022/01/07 09:00:41;;;;;;;35.28;21.55;;;4.50;99.90;;;;;;5044691;28;20520;-40
2022/01/07 09:03:08;;;;;;;39.65;22.65;;;4.50;99.90;;;;;;5036585;28;20127;-41
2022/01/07 09:05:35;;;;;;;39.38;21.58;;;4.50;99.90;;;;;;5036344;28;20466;-40
2022/01/07 09:08:02;;;;;;;31.42;20.40;;;4.60;99.90;;;;;;5037839;28;20067;-40
2022/01/07 09:10:30;;;;;;;35.70;22.27;;;4.60;99.90;;;;;;5037285;28;20476;-41
2022/01/07 09:12:57;;;;;;;28.70;21.27;;;4.60;99.90;;;;;;5048074;28;20084;-41
2022/01/07 09:15:24;;;;;;;33.03;21.10;;;4.60;99.90;;;;;;5045445;28;20474;-42
2022/01/07 09:17:51;;;;;;;43.97;22.98;;;4.60;99.90;;;;;;5036806;28;20091;-40
2022/01/07 09:20:20;;;;;;;40.47;21.98;;;4.60;99.90;;;;;;5046160;28;20045;-40
2022/01/07 09:22:47;;;;;;;37.90;22.13;;;4.70;99.90;;;;;;5022183;28;20055;-39
2022/01/07 09:25:14;;;;;;;38.40;21.42;;;4.70;99.90;;;;;;5026750;28;20518;-42
2022/01/07 09:27:42;;;;;;;39.15;22.30;;;4.70;99.90;;;;;;5027600;28;20051;-40
2022/01/07 09:30:10;;;;;;;39.45;23.50;;;4.70;99.90;;;;;;5048416;28;20059;-40
2022/01/07 09:32:37;;;;;;;39.67;23.50;;;4.70;99.90;;;;;;5043749;28;20095;-41
2022/01/07 09:35:05;;;;;;;39.28;23.63;;;4.80;99.90;;;;;;5043818;28;20493;-42
2022/01/07 09:37:32;;;;;;;42.40;23.58;;;4.80;99.90;;;;;;5051136;28;20554;-41
2022/01/07 09:40:00;;;;;;;39.83;22.60;;;4.80;99.90;;;;;;5027472;28;20456;-41
2022/01/07 09:42:27;;;;;;;39.35;21.85;;;4.80;99.90;;;;;;5044053;28;20095;-42
2022/01/07 09:44:56;;;;;;;39.95;22.98;;;4.80;99.90;;;;;;5047968;28;20049;-40
2022/01/07 09:47:23;;;;;;;36.67;23.42;;;4.90;99.90;;;;;;5038740;28;20072;-41
2022/01/07 09:49:50;;;;;;;40.25;22.65;;;4.90;99.90;;;;;;5027694;28;20085;-40
2022/01/07 09:52:17;;;;;;;40.17;23.23;;;4.90;99.90;;;;;;5024306;28;20106;-40
2022/01/07 09:54:44;;;;;;;39.05;22.63;;;5.00;99.90;;;;;;5028241;28;20080;-40
2022/01/07 09:57:12;;;;;;;51.72;26.48;;;5.00;99.90;;;;;;5026910;28;20156;-39
2022/01/07 09:59:39;;;;;;;38.92;23.98;;;5.00;99.90;;;;;;5033922;28;20049;-38
2022/01/07 10:02:08;;;;;;;24.45;12.70;;;5.00;99.90;;;;;;5036017;28;20041;-39
2022/01/07 10:04:37;;;;;;;16.38;9.63;;;5.00;99.90;;;;;;5036655;28;20092;-39
2022/01/07 10:07:11;;;;;;;16.08;8.23;;;4.90;99.90;;;;;;5034325;28;20505;-38
2022/01/07 10:09:38;;;;;;;13.43;7.20;;;4.90;99.90;;;;;;5036820;28;20586;-38
2022/01/07 10:12:06;;;;;;;13.27;6.93;;;4.90;99.90;;;;;;5028628;28;20056;-39
2022/01/07 10:14:33;;;;;;;10.30;4.88;;;4.80;99.90;;;;;;5045229;28;20507;-39
2022/01/07 10:17:01;;;;;;;7.57;4.47;;;4.70;99.90;;;;;;5034142;28;20061;-39
2022/01/07 10:19:37;;;;;;;11.38;5.70;;;4.70;99.90;;;;;;5029140;28;20489;-39
2022/01/07 10:22:05;;;;;;;11.88;6.32;;;4.80;99.90;;;;;;5048839;28;20048;-39
2022/01/07 10:24:33;;;;;;;11.27;7.13;;;4.80;99.90;;;;;;5048321;28;20458;-39
2022/01/07 10:27:10;;;;;;;13.07;7.53;;;4.80;99.90;;;;;;5033024;28;20037;-40
2022/01/07 10:29:40;;;;;;;14.65;8.52;;;4.80;99.90;;;;;;5046042;28;20440;-40
2022/01/07 10:32:26;;;;;;;15.30;8.95;;;4.80;99.90;;;;;;5041429;28;20485;-40
2022/01/07 10:35:05;;;;;;;13.13;8.25;;;4.80;99.90;;;;;;5050829;28;20049;-40
2022/01/07 10:37:32;;;;;;;17.42;10.18;;;4.80;99.90;;;;;;5028125;28;20080;-39
2022/01/07 10:39:59;;;;;;;15.85;10.52;;;4.80;99.90;;;;;;5032315;28;20052;-40
2022/01/07 10:42:26;;;;;;;21.60;13.10;;;4.70;99.90;;;;;;5042330;28;20139;-40
2022/01/07 10:45:00;;;;;;;20.05;11.75;;;4.80;99.90;;;;;;5044975;28;20056;-40
2022/01/07 10:47:28;;;;;;;21.13;11.10;;;4.80;99.90;;;;;;5059291;28;20055;-43
2022/01/07 10:50:14;;;;;;;23.63;9.73;;;4.80;99.90;;;;;;5031614;28;20061;-43
2022/01/07 10:52:41;;;;;;;17.23;8.57;;;4.90;99.90;;;;;;5046270;28;20041;-41
2022/01/07 10:55:10;;;;;;;16.35;7.63;;;4.90;99.90;;;;;;5036696;28;20131;-41
2022/01/07 10:57:38;;;;;;;18.77;6.53;;;4.90;99.90;;;;;;5047045;28;20076;-42
2022/01/07 11:00:07;;;;;;;17.75;6.55;;;4.90;99.90;;;;;;5032388;28;20135;-44
2022/01/07 11:02:34;;;;;;;19.30;6.50;;;5.00;99.90;;;;;;5039371;28;20118;-44
2022/01/07 11:05:01;;;;;;;13.88;6.22;;;5.00;99.90;;;;;;5028761;28;20831;-44
2022/01/07 11:07:30;;;;;;;16.52;7.82;;;5.00;99.90;;;;;;5064968;28;20092;-39
2022/01/07 11:09:58;;;;;;;18.73;8.63;;;5.00;99.90;;;;;;5020215;28;20401;-39
2022/01/07 11:12:25;;;;;;;18.77;10.00;;;5.00;99.90;;;;;;5028581;28;20053;-39
2022/01/07 11:14:52;;;;;;;18.30;10.70;;;5.10;99.90;;;;;;5027348;28;20103;-40
2022/01/07 11:17:21;;;;;;;29.58;10.95;;;5.20;99.90;;;;;;5049272;28;20600;-42
2022/01/07 11:19:51;;;;;;;25.83;13.32;;;5.30;99.90;;;;;;5024902;28;20132;-40
2022/01/07 11:22:19;;;;;;;23.27;13.57;;;5.30;99.90;;;;;;5025079;28;20139;-40
2022/01/07 11:24:50;;;;;;;25.95;12.20;;;5.40;99.90;;;;;;5041878;28;20084;-40
2022/01/07 11:27:20;;;;;;;26.08;15.88;;;5.40;99.90;;;;;;5032650;28;20052;-40
2022/01/07 11:29:56;;;;;;;27.75;14.95;;;5.40;99.90;;;;;;5045413;28;20083;-40
2022/01/07 11:32:36;;;;;;;24.77;15.55;;;5.40;99.90;;;;;;5033156;28;20060;-40
2022/01/07 11:35:46;;;;;;;31.63;15.70;;;5.30;99.90;;;;;;5050169;28;20088;-40
2022/01/07 11:38:38;;;;;;;28.20;14.60;;;5.30;99.90;;;;;;5029071;28;21501;-41
2022/01/07 11:41:09;;;;;;;29.35;15.48;;;5.20;99.90;;;;;;5026530;28;20057;-42
2022/01/07 11:43:39;;;;;;;34.65;15.40;;;5.30;99.90;;;;;;5027294;28;20045;-42
2022/01/07 11:46:36;;;;;;;23.77;13.88;;;5.20;99.90;;;;;;5042288;28;20092;-40
2022/01/07 11:49:03;;;;;;;25.15;14.55;;;5.30;99.90;;;;;;4946505;28;20053;-42
2022/01/07 11:51:38;;;;;;;23.23;13.02;;;5.20;99.90;;;;;;5023292;28;20047;-42
2022/01/07 11:54:08;;;;;;;25.27;12.27;;;5.30;99.90;;;;;;5040473;28;20097;-43
2022/01/07 11:56:37;;;;;;;22.50;12.85;;;5.30;99.90;;;;;;5023738;28;20057;-43
2022/01/07 11:59:25;;;;;;;18.27;10.98;;;5.30;99.90;;;;;;5024356;28;20049;-43
2022/01/07 12:02:05;;;;;;;18.13;8.00;;;5.30;99.90;;;;;;5043505;28;20081;-43
2022/01/07 12:04:33;;;;;;;13.07;6.60;;;5.30;99.90;;;;;;5050169;28;20072;-41
2022/01/07 12:07:01;;;;;;;12.13;4.18;;;5.30;99.90;;;;;;5028044;28;20459;-43
2022/01/07 12:09:33;;;;;;;7.18;3.80;;;5.30;99.90;;;;;;5046556;28;20056;-42
2022/01/07 12:12:02;;;;;;;9.75;3.35;;;5.30;99.90;;;;;;5052568;28;20466;-41
2022/01/07 12:14:34;;;;;;;15.20;2.80;;;5.30;99.90;;;;;;5047035;28;20045;-42
2022/01/07 12:17:01;;;;;;;8.00;1.90;;;5.30;99.90;;;;;;5029970;28;20045;-41
2022/01/07 12:20:07;;;;;;;9.90;2.40;;;5.30;99.90;;;;;;5049775;28;20065;-43
2022/01/07 12:22:34;;;;;;;8.43;1.85;;;5.30;99.90;;;;;;5031495;28;20073;-44
2022/01/07 12:25:03;;;;;;;9.95;1.75;;;5.20;99.90;;;;;;5030163;28;20132;-41
2022/01/07 12:27:31;;;;;;;10.50;1.95;;;5.20;99.90;;;;;;5054666;28;20056;-42
2022/01/07 12:30:01;;;;;;;9.38;2.20;;;5.10;99.90;;;;;;5052733;28;20493;-42
2022/01/07 12:32:35;;;;;;;13.05;1.75;;;5.00;99.90;;;;;;5031946;28;20453;-43
2022/01/07 12:35:02;;;;;;;8.38;1.60;;;5.00;99.90;;;;;;5032176;28;20564;-43
2022/01/07 12:37:30;;;;;;;8.23;1.67;;;5.00;99.90;;;;;;5051518;28;20404;-42
2022/01/07 12:39:58;;;;;;;9.50;1.90;;;5.00;99.90;;;;;;5048591;28;20158;-45
2022/01/07 12:42:27;;;;;;;6.90;1.70;;;5.00;99.90;;;;;;5028962;28;20499;-41
2022/01/07 12:44:57;;;;;;;14.52;2.83;;;5.00;99.90;;;;;;5047376;28;20092;-42
2022/01/07 12:47:25;;;;;;;12.48;1.90;;;5.00;99.90;;;;;;5035898;28;20497;-41
2022/01/07 12:49:53;;;;;;;8.25;2.00;;;5.10;99.90;;;;;;5046028;28;20104;-41
2022/01/07 12:52:22;;;;;;;12.98;3.53;;;5.00;99.90;;;;;;5027467;28;20129;-42
2022/01/07 12:54:57;;;;;;;13.13;2.80;;;5.00;99.90;;;;;;5042451;28;20497;-42